ΕΜΥ, Εθνική Μετεωρολογική Υπηρεσία - Δελτία Καιρού, Προγνώσεις

ΑΕΡΟΝΑΥΤΙΛΙΑ

GREEK AIRPORTS CODES

TAF LGML 110700Z 1109/1118 01018KT 9999 FEW020 TEMPO 1109/1115 01020G30KT=

EUROPEAN AIRPORTS CODES

LFPO 110700Z 01005KT 330V040 CAVOK 17/10 Q1025 NOSIG=